sensor_id;sensor_type;location;lat;lon;timestamp;P1;durP1;ratioP1;P2;durP2;ratioP2
74459;SDS011;62902;48.854;9.292;2023-04-24T00:00:46;1.60;;;0.57;;
74459;SDS011;62902;48.854;9.292;2023-04-24T00:03:13;3.55;;;0.88;;
74459;SDS011;62902;48.854;9.292;2023-04-24T00:05:40;2.13;;;0.70;;
74459;SDS011;62902;48.854;9.292;2023-04-24T00:08:07;2.08;;;0.50;;
74459;SDS011;62902;48.854;9.292;2023-04-24T00:10:34;1.63;;;0.60;;
74459;SDS011;62902;48.854;9.292;2023-04-24T00:13:00;1.15;;;0.60;;
74459;SDS011;62902;48.854;9.292;2023-04-24T00:15:27;2.05;;;0.80;;
74459;SDS011;62902;48.854;9.292;2023-04-24T00:17:54;1.90;;;0.73;;
74459;SDS011;62902;48.854;9.292;2023-04-24T00:20:20;12.63;;;7.95;;
74459;SDS011;62902;48.854;9.292;2023-04-24T00:22:47;1.48;;;0.50;;
74459;SDS011;62902;48.854;9.292;2023-04-24T00:25:15;3.22;;;0.50;;
74459;SDS011;62902;48.854;9.292;2023-04-24T00:27:41;13.93;;;8.27;;
74459;SDS011;62902;48.854;9.292;2023-04-24T00:30:08;12.63;;;7.68;;
74459;SDS011;62902;48.854;9.292;2023-04-24T00:32:35;24.42;;;13.63;;
74459;SDS011;62902;48.854;9.292;2023-04-24T00:35:02;107.80;;;54.20;;
74459;SDS011;62902;48.854;9.292;2023-04-24T00:37:28;115.72;;;52.20;;
74459;SDS011;62902;48.854;9.292;2023-04-24T00:39:55;71.75;;;33.63;;
74459;SDS011;62902;48.854;9.292;2023-04-24T00:42:22;163.98;;;70.72;;
74459;SDS011;62902;48.854;9.292;2023-04-24T00:44:48;73.38;;;29.55;;
74459;SDS011;62902;48.854;9.292;2023-04-24T00:47:15;66.35;;;29.45;;
74459;SDS011;62902;48.854;9.292;2023-04-24T00:49:42;120.38;;;41.70;;
74459;SDS011;62902;48.854;9.292;2023-04-24T00:52:09;46.88;;;14.65;;
74459;SDS011;62902;48.854;9.292;2023-04-24T00:54:35;1.85;;;0.45;;
74459;SDS011;62902;48.854;9.292;2023-04-24T00:57:02;38.97;;;10.25;;
74459;SDS011;62902;48.854;9.292;2023-04-24T00:59:30;25.17;;;9.77;;
74459;SDS011;62902;48.854;9.292;2023-04-24T01:01:57;5.82;;;0.73;;
74459;SDS011;62902;48.854;9.292;2023-04-24T01:04:24;2.40;;;0.82;;
74459;SDS011;62902;48.854;9.292;2023-04-24T01:06:52;32.88;;;15.98;;
74459;SDS011;62902;48.854;9.292;2023-04-24T01:09:19;4.63;;;0.80;;
74459;SDS011;62902;48.854;9.292;2023-04-24T01:11:46;2.90;;;0.70;;
74459;SDS011;62902;48.854;9.292;2023-04-24T01:14:13;0.95;;;0.47;;
74459;SDS011;62902;48.854;9.292;2023-04-24T01:16:40;59.80;;;18.73;;
74459;SDS011;62902;48.854;9.292;2023-04-24T01:19:07;4.13;;;0.80;;
74459;SDS011;62902;48.854;9.292;2023-04-24T01:21:35;45.08;;;19.80;;
74459;SDS011;62902;48.854;9.292;2023-04-24T01:28:57;2.55;;;0.70;;
74459;SDS011;62902;48.854;9.292;2023-04-24T01:31:24;32.50;;;16.15;;
74459;SDS011;62902;48.854;9.292;2023-04-24T01:33:50;87.82;;;34.58;;
74459;SDS011;62902;48.854;9.292;2023-04-24T01:36:17;80.68;;;30.70;;
74459;SDS011;62902;48.854;9.292;2023-04-24T01:38:44;5.30;;;0.70;;
74459;SDS011;62902;48.854;9.292;2023-04-24T01:41:11;211.57;;;85.55;;
74459;SDS011;62902;48.854;9.292;2023-04-24T01:43:37;9.85;;;5.05;;
74459;SDS011;62902;48.854;9.292;2023-04-24T01:46:04;62.80;;;24.27;;
74459;SDS011;62902;48.854;9.292;2023-04-24T01:48:34;1.23;;;0.60;;
74459;SDS011;62902;48.854;9.292;2023-04-24T01:51:01;2.55;;;0.70;;
74459;SDS011;62902;48.854;9.292;2023-04-24T01:53:28;110.28;;;51.90;;
74459;SDS011;62902;48.854;9.292;2023-04-24T01:55:55;171.00;;;78.95;;
74459;SDS011;62902;48.854;9.292;2023-04-24T01:58:23;172.90;;;72.10;;
74459;SDS011;62902;48.854;9.292;2023-04-24T02:00:50;93.47;;;43.60;;
74459;SDS011;62902;48.854;9.292;2023-04-24T02:03:17;3.13;;;0.70;;
74459;SDS011;62902;48.854;9.292;2023-04-24T02:05:44;4.88;;;1.20;;
74459;SDS011;62902;48.854;9.292;2023-04-24T02:08:11;1.10;;;0.52;;
74459;SDS011;62902;48.854;9.292;2023-04-24T02:10:38;1.13;;;0.57;;
74459;SDS011;62902;48.854;9.292;2023-04-24T02:13:04;4.32;;;1.27;;
74459;SDS011;62902;48.854;9.292;2023-04-24T02:15:31;277.63;;;135.35;;
74459;SDS011;62902;48.854;9.292;2023-04-24T02:17:57;1.05;;;0.38;;
74459;SDS011;62902;48.854;9.292;2023-04-24T02:20:24;46.38;;;24.08;;
74459;SDS011;62902;48.854;9.292;2023-04-24T02:22:52;21.77;;;9.70;;
74459;SDS011;62902;48.854;9.292;2023-04-24T02:25:18;5.72;;;3.05;;
74459;SDS011;62902;48.854;9.292;2023-04-24T02:27:45;114.45;;;66.18;;
74459;SDS011;62902;48.854;9.292;2023-04-24T02:30:12;445.05;;;250.77;;
74459;SDS011;62902;48.854;9.292;2023-04-24T02:32:38;3.88;;;2.55;;
74459;SDS011;62902;48.854;9.292;2023-04-24T02:35:05;72.45;;;37.33;;
74459;SDS011;62902;48.854;9.292;2023-04-24T02:37:32;209.95;;;115.15;;
74459;SDS011;62902;48.854;9.292;2023-04-24T02:39:59;251.23;;;110.22;;
74459;SDS011;62902;48.854;9.292;2023-04-24T02:42:26;339.88;;;156.10;;
74459;SDS011;62902;48.854;9.292;2023-04-24T02:44:53;403.48;;;172.50;;
74459;SDS011;62902;48.854;9.292;2023-04-24T02:47:19;247.82;;;117.35;;
74459;SDS011;62902;48.854;9.292;2023-04-24T02:49:47;191.25;;;98.35;;
74459;SDS011;62902;48.854;9.292;2023-04-24T02:52:14;264.08;;;118.45;;
74459;SDS011;62902;48.854;9.292;2023-04-24T02:54:41;60.03;;;41.55;;
74459;SDS011;62902;48.854;9.292;2023-04-24T02:57:08;16.45;;;10.35;;
74459;SDS011;62902;48.854;9.292;2023-04-24T03:02:02;29.88;;;26.02;;
74459;SDS011;62902;48.854;9.292;2023-04-24T03:04:28;13.77;;;9.45;;
74459;SDS011;62902;48.854;9.292;2023-04-24T03:06:55;82.43;;;53.35;;
74459;SDS011;62902;48.854;9.292;2023-04-24T03:09:22;99.35;;;60.78;;
74459;SDS011;62902;48.854;9.292;2023-04-24T03:11:49;99.80;;;60.88;;
74459;SDS011;62902;48.854;9.292;2023-04-24T03:14:15;162.13;;;90.32;;
74459;SDS011;62902;48.854;9.292;2023-04-24T03:16:42;144.90;;;79.38;;
74459;SDS011;62902;48.854;9.292;2023-04-24T03:19:09;52.65;;;28.05;;
74459;SDS011;62902;48.854;9.292;2023-04-24T03:21:43;1.23;;;0.50;;
74459;SDS011;62902;48.854;9.292;2023-04-24T03:24:10;88.20;;;47.53;;
74459;SDS011;62902;48.854;9.292;2023-04-24T03:26:37;2.10;;;0.60;;
74459;SDS011;62902;48.854;9.292;2023-04-24T03:29:36;4.53;;;0.88;;
74459;SDS011;62902;48.854;9.292;2023-04-24T03:32:03;32.30;;;19.27;;
74459;SDS011;62902;48.854;9.292;2023-04-24T03:34:30;133.68;;;71.78;;
74459;SDS011;62902;48.854;9.292;2023-04-24T03:36:57;136.68;;;74.20;;
74459;SDS011;62902;48.854;9.292;2023-04-24T03:39:24;14.75;;;9.20;;
74459;SDS011;62902;48.854;9.292;2023-04-24T03:41:54;31.23;;;21.77;;
74459;SDS011;62902;48.854;9.292;2023-04-24T03:44:25;37.80;;;27.50;;
74459;SDS011;62902;48.854;9.292;2023-04-24T03:46:52;132.65;;;69.07;;
74459;SDS011;62902;48.854;9.292;2023-04-24T03:49:20;250.70;;;118.53;;
74459;SDS011;62902;48.854;9.292;2023-04-24T03:51:48;175.15;;;86.10;;
74459;SDS011;62902;48.854;9.292;2023-04-24T03:54:19;87.75;;;55.58;;
74459;SDS011;62902;48.854;9.292;2023-04-24T03:56:46;1.75;;;0.80;;
74459;SDS011;62902;48.854;9.292;2023-04-24T03:59:13;1.42;;;0.60;;
74459;SDS011;62902;48.854;9.292;2023-04-24T04:01:42;2.58;;;0.65;;
74459;SDS011;62902;48.854;9.292;2023-04-24T04:04:14;12.45;;;11.05;;
74459;SDS011;62902;48.854;9.292;2023-04-24T04:06:43;27.63;;;25.00;;
74459;SDS011;62902;48.854;9.292;2023-04-24T04:09:10;67.90;;;48.75;;
74459;SDS011;62902;48.854;9.292;2023-04-24T04:11:37;122.70;;;73.13;;
74459;SDS011;62902;48.854;9.292;2023-04-24T04:14:04;183.68;;;91.70;;
74459;SDS011;62902;48.854;9.292;2023-04-24T04:16:33;411.50;;;184.63;;
74459;SDS011;62902;48.854;9.292;2023-04-24T04:19:02;600.67;;;289.13;;
74459;SDS011;62902;48.854;9.292;2023-04-24T04:21:29;653.42;;;278.42;;
74459;SDS011;62902;48.854;9.292;2023-04-24T04:24:08;602.22;;;255.07;;
74459;SDS011;62902;48.854;9.292;2023-04-24T04:26:40;655.30;;;286.15;;
74459;SDS011;62902;48.854;9.292;2023-04-24T04:29:08;661.47;;;286.33;;
74459;SDS011;62902;48.854;9.292;2023-04-24T04:31:40;670.33;;;304.23;;
74459;SDS011;62902;48.854;9.292;2023-04-24T04:34:10;725.05;;;321.85;;
74459;SDS011;62902;48.854;9.292;2023-04-24T04:36:39;665.05;;;292.05;;
74459;SDS011;62902;48.854;9.292;2023-04-24T04:39:23;768.85;;;338.25;;
74459;SDS011;62902;48.854;9.292;2023-04-24T04:41:55;600.95;;;275.60;;
74459;SDS011;62902;48.854;9.292;2023-04-24T04:44:26;635.40;;;313.65;;
74459;SDS011;62902;48.854;9.292;2023-04-24T04:46:56;648.53;;;333.58;;
74459;SDS011;62902;48.854;9.292;2023-04-24T04:49:29;598.10;;;301.02;;
74459;SDS011;62902;48.854;9.292;2023-04-24T04:51:56;516.08;;;270.05;;
74459;SDS011;62902;48.854;9.292;2023-04-24T04:54:25;423.33;;;198.38;;
74459;SDS011;62902;48.854;9.292;2023-04-24T04:56:52;317.85;;;139.50;;
74459;SDS011;62902;48.854;9.292;2023-04-24T04:59:19;307.98;;;134.50;;
74459;SDS011;62902;48.854;9.292;2023-04-24T05:01:50;317.02;;;138.43;;
74459;SDS011;62902;48.854;9.292;2023-04-24T05:04:16;321.88;;;138.48;;
74459;SDS011;62902;48.854;9.292;2023-04-24T05:06:43;322.55;;;138.55;;
74459;SDS011;62902;48.854;9.292;2023-04-24T05:09:11;260.20;;;117.25;;
74459;SDS011;62902;48.854;9.292;2023-04-24T05:11:49;287.67;;;127.63;;
74459;SDS011;62902;48.854;9.292;2023-04-24T05:14:16;299.27;;;131.20;;
74459;SDS011;62902;48.854;9.292;2023-04-24T05:16:44;313.70;;;136.48;;
74459;SDS011;62902;48.854;9.292;2023-04-24T05:19:12;297.95;;;131.00;;
74459;SDS011;62902;48.854;9.292;2023-04-24T05:21:40;288.30;;;127.93;;
74459;SDS011;62902;48.854;9.292;2023-04-24T05:24:08;287.20;;;126.93;;
74459;SDS011;62902;48.854;9.292;2023-04-24T05:26:44;315.23;;;140.10;;
74459;SDS011;62902;48.854;9.292;2023-04-24T05:29:14;455.80;;;236.65;;
74459;SDS011;62902;48.854;9.292;2023-04-24T05:31:41;291.58;;;145.30;;
74459;SDS011;62902;48.854;9.292;2023-04-24T05:34:08;247.45;;;126.32;;
74459;SDS011;62902;48.854;9.292;2023-04-24T05:36:39;450.67;;;231.50;;
74459;SDS011;62902;48.854;9.292;2023-04-24T05:39:06;538.70;;;304.85;;
74459;SDS011;62902;48.854;9.292;2023-04-24T05:41:33;277.92;;;128.48;;
74459;SDS011;62902;48.854;9.292;2023-04-24T05:44:00;436.38;;;218.98;;
74459;SDS011;62902;48.854;9.292;2023-04-24T05:46:27;507.02;;;266.08;;
74459;SDS011;62902;48.854;9.292;2023-04-24T05:48:54;507.40;;;264.58;;
74459;SDS011;62902;48.854;9.292;2023-04-24T05:51:21;523.15;;;275.20;;
74459;SDS011;62902;48.854;9.292;2023-04-24T05:53:48;540.30;;;288.85;;
74459;SDS011;62902;48.854;9.292;2023-04-24T05:56:14;563.08;;;312.63;;
74459;SDS011;62902;48.854;9.292;2023-04-24T05:58:41;573.45;;;323.95;;
74459;SDS011;62902;48.854;9.292;2023-04-24T06:01:08;604.33;;;344.65;;
74459;SDS011;62902;48.854;9.292;2023-04-24T06:03:36;632.42;;;342.83;;
74459;SDS011;62902;48.854;9.292;2023-04-24T06:06:03;508.83;;;237.00;;
74459;SDS011;62902;48.854;9.292;2023-04-24T06:08:29;452.33;;;206.25;;
74459;SDS011;62902;48.854;9.292;2023-04-24T06:10:56;466.50;;;208.88;;
74459;SDS011;62902;48.854;9.292;2023-04-24T06:13:23;486.25;;;227.88;;
74459;SDS011;62902;48.854;9.292;2023-04-24T06:16:25;307.85;;;138.65;;
74459;SDS011;62902;48.854;9.292;2023-04-24T06:18:58;316.20;;;143.55;;
74459;SDS011;62902;48.854;9.292;2023-04-24T06:21:25;285.45;;;136.60;;
74459;SDS011;62902;48.854;9.292;2023-04-24T06:23:52;373.98;;;167.05;;
74459;SDS011;62902;48.854;9.292;2023-04-24T06:26:18;229.07;;;110.80;;
74459;SDS011;62902;48.854;9.292;2023-04-24T06:28:44;105.07;;;63.38;;
74459;SDS011;62902;48.854;9.292;2023-04-24T06:31:11;88.93;;;57.88;;
74459;SDS011;62902;48.854;9.292;2023-04-24T06:33:38;257.27;;;130.52;;
74459;SDS011;62902;48.854;9.292;2023-04-24T06:36:05;236.35;;;115.50;;
74459;SDS011;62902;48.854;9.292;2023-04-24T06:38:31;266.20;;;121.72;;
74459;SDS011;62902;48.854;9.292;2023-04-24T06:40:58;163.25;;;82.05;;
74459;SDS011;62902;48.854;9.292;2023-04-24T06:43:24;337.13;;;148.27;;
74459;SDS011;62902;48.854;9.292;2023-04-24T06:45:51;363.48;;;161.25;;
74459;SDS011;62902;48.854;9.292;2023-04-24T06:48:18;316.50;;;139.48;;
74459;SDS011;62902;48.854;9.292;2023-04-24T06:50:44;336.65;;;146.90;;
74459;SDS011;62902;48.854;9.292;2023-04-24T06:53:11;375.55;;;164.55;;
74459;SDS011;62902;48.854;9.292;2023-04-24T06:55:39;138.40;;;75.13;;
74459;SDS011;62902;48.854;9.292;2023-04-24T06:58:05;53.28;;;46.30;;
74459;SDS011;62902;48.854;9.292;2023-04-24T07:00:32;79.95;;;54.05;;
74459;SDS011;62902;48.854;9.292;2023-04-24T07:02:59;86.00;;;56.25;;
74459;SDS011;62902;48.854;9.292;2023-04-24T07:05:26;136.68;;;75.65;;
74459;SDS011;62902;48.854;9.292;2023-04-24T07:07:52;167.70;;;84.93;;
74459;SDS011;62902;48.854;9.292;2023-04-24T07:10:19;186.88;;;90.45;;
74459;SDS011;62902;48.854;9.292;2023-04-24T07:12:46;239.57;;;108.22;;
74459;SDS011;62902;48.854;9.292;2023-04-24T07:15:13;246.60;;;109.63;;
74459;SDS011;62902;48.854;9.292;2023-04-24T07:17:40;2.45;;;1.25;;
74459;SDS011;62902;48.854;9.292;2023-04-24T07:20:10;41.25;;;21.10;;
74459;SDS011;62902;48.854;9.292;2023-04-24T07:22:37;87.50;;;38.78;;
74459;SDS011;62902;48.854;9.292;2023-04-24T07:25:05;99.10;;;47.67;;
74459;SDS011;62902;48.854;9.292;2023-04-24T07:27:31;138.70;;;74.80;;
74459;SDS011;62902;48.854;9.292;2023-04-24T07:29:58;135.55;;;65.05;;
74459;SDS011;62902;48.854;9.292;2023-04-24T07:32:24;4.78;;;1.60;;
74459;SDS011;62902;48.854;9.292;2023-04-24T07:34:51;2.85;;;1.30;;
74459;SDS011;62902;48.854;9.292;2023-04-24T07:37:17;3.83;;;1.27;;
74459;SDS011;62902;48.854;9.292;2023-04-24T07:39:44;3.22;;;1.40;;
74459;SDS011;62902;48.854;9.292;2023-04-24T07:42:11;3.63;;;1.23;;
74459;SDS011;62902;48.854;9.292;2023-04-24T07:44:38;3.70;;;1.17;;
74459;SDS011;62902;48.854;9.292;2023-04-24T07:47:04;2.55;;;1.30;;
74459;SDS011;62902;48.854;9.292;2023-04-24T07:49:31;147.65;;;70.43;;
74459;SDS011;62902;48.854;9.292;2023-04-24T07:52:00;244.13;;;119.60;;
74459;SDS011;62902;48.854;9.292;2023-04-24T07:54:28;120.07;;;63.22;;
74459;SDS011;62902;48.854;9.292;2023-04-24T07:56:55;59.28;;;30.83;;
74459;SDS011;62902;48.854;9.292;2023-04-24T07:59:21;2.42;;;1.10;;
74459;SDS011;62902;48.854;9.292;2023-04-24T08:01:48;4.18;;;1.33;;
74459;SDS011;62902;48.854;9.292;2023-04-24T08:04:14;85.05;;;46.67;;
74459;SDS011;62902;48.854;9.292;2023-04-24T08:06:41;105.82;;;54.38;;
74459;SDS011;62902;48.854;9.292;2023-04-24T08:09:08;3.53;;;1.23;;
74459;SDS011;62902;48.854;9.292;2023-04-24T08:11:34;3.17;;;1.17;;
74459;SDS011;62902;48.854;9.292;2023-04-24T08:14:01;3.15;;;1.05;;
74459;SDS011;62902;48.854;9.292;2023-04-24T08:16:27;3.83;;;1.27;;
74459;SDS011;62902;48.854;9.292;2023-04-24T08:18:54;2.97;;;1.13;;
74459;SDS011;62902;48.854;9.292;2023-04-24T08:21:21;3.92;;;1.23;;
74459;SDS011;62902;48.854;9.292;2023-04-24T08:23:47;4.47;;;1.00;;
74459;SDS011;62902;48.854;9.292;2023-04-24T08:26:14;24.05;;;12.65;;
74459;SDS011;62902;48.854;9.292;2023-04-24T08:28:41;155.95;;;68.90;;
74459;SDS011;62902;48.854;9.292;2023-04-24T08:31:07;51.42;;;23.60;;
74459;SDS011;62902;48.854;9.292;2023-04-24T08:33:34;142.82;;;67.88;;
74459;SDS011;62902;48.854;9.292;2023-04-24T08:36:04;163.52;;;72.75;;
74459;SDS011;62902;48.854;9.292;2023-04-24T08:38:31;81.07;;;45.92;;
74459;SDS011;62902;48.854;9.292;2023-04-24T08:40:59;3.17;;;1.33;;
74459;SDS011;62902;48.854;9.292;2023-04-24T08:43:26;2.35;;;1.00;;
74459;SDS011;62902;48.854;9.292;2023-04-24T08:45:55;35.80;;;20.58;;
74459;SDS011;62902;48.854;9.292;2023-04-24T08:48:23;4.88;;;3.08;;
74459;SDS011;62902;48.854;9.292;2023-04-24T08:53:24;3.28;;;1.40;;
74459;SDS011;62902;48.854;9.292;2023-04-24T08:55:51;43.67;;;31.75;;
74459;SDS011;62902;48.854;9.292;2023-04-24T08:58:18;2.25;;;1.02;;
74459;SDS011;62902;48.854;9.292;2023-04-24T09:00:45;2.10;;;0.85;;
74459;SDS011;62902;48.854;9.292;2023-04-24T09:03:14;1.52;;;0.93;;
74459;SDS011;62902;48.854;9.292;2023-04-24T09:05:43;2.78;;;0.90;;
74459;SDS011;62902;48.854;9.292;2023-04-24T09:08:12;3.20;;;0.90;;
74459;SDS011;62902;48.854;9.292;2023-04-24T09:10:40;2.67;;;0.98;;
74459;SDS011;62902;48.854;9.292;2023-04-24T09:13:07;2.28;;;1.00;;
74459;SDS011;62902;48.854;9.292;2023-04-24T09:15:35;2.88;;;1.02;;
74459;SDS011;62902;48.854;9.292;2023-04-24T09:18:02;4.88;;;3.63;;
74459;SDS011;62902;48.854;9.292;2023-04-24T09:20:30;19.85;;;18.08;;
74459;SDS011;62902;48.854;9.292;2023-04-24T09:22:57;165.18;;;88.10;;
74459;SDS011;62902;48.854;9.292;2023-04-24T09:25:34;50.28;;;29.65;;
74459;SDS011;62902;48.854;9.292;2023-04-24T09:28:03;279.20;;;136.40;;
74459;SDS011;62902;48.854;9.292;2023-04-24T09:30:30;329.40;;;160.57;;
74459;SDS011;62902;48.854;9.292;2023-04-24T09:33:10;152.20;;;82.32;;
74459;SDS011;62902;48.854;9.292;2023-04-24T09:35:42;369.48;;;192.18;;
74459;SDS011;62902;48.854;9.292;2023-04-24T09:38:12;352.55;;;169.82;;
74459;SDS011;62902;48.854;9.292;2023-04-24T09:40:38;244.95;;;114.03;;
74459;SDS011;62902;48.854;9.292;2023-04-24T09:43:09;217.27;;;102.43;;
74459;SDS011;62902;48.854;9.292;2023-04-24T09:45:37;212.75;;;101.78;;
74459;SDS011;62902;48.854;9.292;2023-04-24T09:48:08;225.68;;;105.72;;
74459;SDS011;62902;48.854;9.292;2023-04-24T09:50:36;260.60;;;118.47;;
74459;SDS011;62902;48.854;9.292;2023-04-24T09:53:03;232.55;;;108.93;;
74459;SDS011;62902;48.854;9.292;2023-04-24T09:55:32;208.63;;;100.15;;
74459;SDS011;62902;48.854;9.292;2023-04-24T09:57:59;146.10;;;78.82;;
74459;SDS011;62902;48.854;9.292;2023-04-24T10:00:27;57.30;;;47.08;;
74459;SDS011;62902;48.854;9.292;2023-04-24T10:03:13;59.28;;;33.63;;
74459;SDS011;62902;48.854;9.292;2023-04-24T10:05:40;178.35;;;78.82;;
74459;SDS011;62902;48.854;9.292;2023-04-24T10:08:08;246.65;;;119.43;;
74459;SDS011;62902;48.854;9.292;2023-04-24T10:10:37;425.80;;;194.88;;
74459;SDS011;62902;48.854;9.292;2023-04-24T10:13:05;450.70;;;223.32;;
74459;SDS011;62902;48.854;9.292;2023-04-24T10:15:34;577.72;;;274.02;;
74459;SDS011;62902;48.854;9.292;2023-04-24T10:18:01;415.67;;;187.43;;
74459;SDS011;62902;48.854;9.292;2023-04-24T10:20:28;93.43;;;53.63;;
74459;SDS011;62902;48.854;9.292;2023-04-24T10:22:57;17.75;;;11.40;;
74459;SDS011;62902;48.854;9.292;2023-04-24T10:25:25;11.70;;;6.10;;
74459;SDS011;62902;48.854;9.292;2023-04-24T10:27:53;1.77;;;0.80;;
74459;SDS011;62902;48.854;9.292;2023-04-24T10:30:23;1.45;;;0.68;;
74459;SDS011;62902;48.854;9.292;2023-04-24T10:32:50;99.70;;;45.38;;
74459;SDS011;62902;48.854;9.292;2023-04-24T10:35:17;63.53;;;38.25;;
74459;SDS011;62902;48.854;9.292;2023-04-24T10:37:46;20.55;;;11.48;;
74459;SDS011;62902;48.854;9.292;2023-04-24T10:40:16;3.83;;;1.25;;
74459;SDS011;62902;48.854;9.292;2023-04-24T10:42:48;106.78;;;52.55;;
74459;SDS011;62902;48.854;9.292;2023-04-24T10:45:18;150.52;;;84.00;;
74459;SDS011;62902;48.854;9.292;2023-04-24T10:47:51;188.45;;;90.18;;
74459;SDS011;62902;48.854;9.292;2023-04-24T10:50:47;167.20;;;84.00;;
74459;SDS011;62902;48.854;9.292;2023-04-24T10:53:18;261.92;;;114.90;;
74459;SDS011;62902;48.854;9.292;2023-04-24T10:56:07;145.93;;;77.95;;
74459;SDS011;62902;48.854;9.292;2023-04-24T10:58:41;231.50;;;107.35;;
74459;SDS011;62902;48.854;9.292;2023-04-24T11:01:23;246.60;;;111.28;;
74459;SDS011;62902;48.854;9.292;2023-04-24T11:03:54;230.65;;;105.30;;
74459;SDS011;62902;48.854;9.292;2023-04-24T11:08:58;77.85;;;45.53;;
74459;SDS011;62902;48.854;9.292;2023-04-24T11:11:29;218.43;;;97.57;;
74459;SDS011;62902;48.854;9.292;2023-04-24T11:18:50;43.22;;;26.08;;
74459;SDS011;62902;48.854;9.292;2023-04-24T11:21:21;270.63;;;120.93;;
74459;SDS011;62902;48.854;9.292;2023-04-24T11:23:48;235.48;;;113.72;;
74459;SDS011;62902;48.854;9.292;2023-04-24T11:26:19;304.35;;;146.52;;
74459;SDS011;62902;48.854;9.292;2023-04-24T11:28:49;185.27;;;88.60;;
74459;SDS011;62902;48.854;9.292;2023-04-24T11:34:07;52.70;;;23.80;;
74459;SDS011;62902;48.854;9.292;2023-04-24T11:36:37;273.92;;;124.55;;
74459;SDS011;62902;48.854;9.292;2023-04-24T11:39:04;344.05;;;143.98;;
74459;SDS011;62902;48.854;9.292;2023-04-24T11:41:31;231.30;;;104.35;;
74459;SDS011;62902;48.854;9.292;2023-04-24T11:43:59;159.75;;;70.00;;
74459;SDS011;62902;48.854;9.292;2023-04-24T11:46:29;355.52;;;153.88;;
74459;SDS011;62902;48.854;9.292;2023-04-24T11:48:56;122.03;;;67.90;;
74459;SDS011;62902;48.854;9.292;2023-04-24T11:51:24;62.58;;;49.17;;
74459;SDS011;62902;48.854;9.292;2023-04-24T11:54:02;234.30;;;107.45;;
74459;SDS011;62902;48.854;9.292;2023-04-24T11:56:30;350.33;;;151.65;;
74459;SDS011;62902;48.854;9.292;2023-04-24T11:58:56;335.90;;;142.18;;
74459;SDS011;62902;48.854;9.292;2023-04-24T12:01:23;396.10;;;166.73;;
74459;SDS011;62902;48.854;9.292;2023-04-24T12:03:50;472.95;;;217.50;;
74459;SDS011;62902;48.854;9.292;2023-04-24T12:06:19;377.90;;;164.25;;
74459;SDS011;62902;48.854;9.292;2023-04-24T12:08:47;463.30;;;184.13;;
74459;SDS011;62902;48.854;9.292;2023-04-24T12:11:14;556.80;;;244.90;;
74459;SDS011;62902;48.854;9.292;2023-04-24T12:13:42;540.55;;;219.23;;
74459;SDS011;62902;48.854;9.292;2023-04-24T12:16:08;217.82;;;101.72;;
74459;SDS011;62902;48.854;9.292;2023-04-24T12:18:40;86.30;;;50.03;;
74459;SDS011;62902;48.854;9.292;2023-04-24T12:21:22;112.18;;;62.92;;
74459;SDS011;62902;48.854;9.292;2023-04-24T12:23:54;2.30;;;1.20;;
74459;SDS011;62902;48.854;9.292;2023-04-24T12:26:21;2.40;;;1.00;;
74459;SDS011;62902;48.854;9.292;2023-04-24T12:28:49;2.63;;;1.10;;
74459;SDS011;62902;48.854;9.292;2023-04-24T12:31:16;3.72;;;1.40;;
74459;SDS011;62902;48.854;9.292;2023-04-24T12:33:43;2.40;;;1.20;;
74459;SDS011;62902;48.854;9.292;2023-04-24T12:36:10;4.18;;;1.00;;
74459;SDS011;62902;48.854;9.292;2023-04-24T12:38:38;2.10;;;0.95;;
74459;SDS011;62902;48.854;9.292;2023-04-24T12:41:11;3.47;;;1.02;;
74459;SDS011;62902;48.854;9.292;2023-04-24T12:43:38;1.40;;;0.80;;
74459;SDS011;62902;48.854;9.292;2023-04-24T12:46:17;2.97;;;0.90;;
74459;SDS011;62902;48.854;9.292;2023-04-24T12:48:46;5.00;;;1.10;;
74459;SDS011;62902;48.854;9.292;2023-04-24T12:51:12;2.45;;;1.10;;
74459;SDS011;62902;48.854;9.292;2023-04-24T12:53:39;2.65;;;1.23;;
74459;SDS011;62902;48.854;9.292;2023-04-24T12:56:06;2.13;;;1.00;;
74459;SDS011;62902;48.854;9.292;2023-04-24T12:58:33;4.38;;;1.17;;
74459;SDS011;62902;48.854;9.292;2023-04-24T13:00:59;8.57;;;4.10;;
74459;SDS011;62902;48.854;9.292;2023-04-24T13:03:27;3.05;;;1.00;;
74459;SDS011;62902;48.854;9.292;2023-04-24T13:05:53;1.50;;;0.80;;
74459;SDS011;62902;48.854;9.292;2023-04-24T13:08:20;3.85;;;1.42;;
74459;SDS011;62902;48.854;9.292;2023-04-24T13:10:46;3.15;;;1.20;;
74459;SDS011;62902;48.854;9.292;2023-04-24T13:13:13;45.22;;;29.15;;
74459;SDS011;62902;48.854;9.292;2023-04-24T13:15:39;34.25;;;23.98;;
74459;SDS011;62902;48.854;9.292;2023-04-24T13:18:06;19.42;;;17.50;;
74459;SDS011;62902;48.854;9.292;2023-04-24T13:20:32;7.10;;;6.47;;
74459;SDS011;62902;48.854;9.292;2023-04-24T13:23:01;7.07;;;3.65;;
74459;SDS011;62902;48.854;9.292;2023-04-24T13:25:28;3.22;;;1.20;;
74459;SDS011;62902;48.854;9.292;2023-04-24T13:27:55;2.00;;;0.90;;
74459;SDS011;62902;48.854;9.292;2023-04-24T13:30:22;2.28;;;1.02;;
74459;SDS011;62902;48.854;9.292;2023-04-24T13:32:48;3.08;;;1.30;;
74459;SDS011;62902;48.854;9.292;2023-04-24T13:35:15;2.80;;;1.30;;
74459;SDS011;62902;48.854;9.292;2023-04-24T13:37:42;4.97;;;1.33;;
74459;SDS011;62902;48.854;9.292;2023-04-24T13:40:08;3.05;;;1.58;;
74459;SDS011;62902;48.854;9.292;2023-04-24T13:42:35;4.90;;;1.77;;
74459;SDS011;62902;48.854;9.292;2023-04-24T13:45:02;4.40;;;1.77;;
74459;SDS011;62902;48.854;9.292;2023-04-24T13:47:50;4.13;;;1.52;;
74459;SDS011;62902;48.854;9.292;2023-04-24T13:50:17;3.03;;;1.30;;
74459;SDS011;62902;48.854;9.292;2023-04-24T13:52:44;4.25;;;1.63;;
74459;SDS011;62902;48.854;9.292;2023-04-24T13:55:11;3.22;;;1.48;;
74459;SDS011;62902;48.854;9.292;2023-04-24T13:57:37;5.32;;;1.48;;
74459;SDS011;62902;48.854;9.292;2023-04-24T14:00:04;2.40;;;1.15;;
74459;SDS011;62902;48.854;9.292;2023-04-24T14:02:32;7.82;;;3.33;;
74459;SDS011;62902;48.854;9.292;2023-04-24T14:04:59;2.95;;;1.13;;
74459;SDS011;62902;48.854;9.292;2023-04-24T14:07:27;2.95;;;1.20;;
74459;SDS011;62902;48.854;9.292;2023-04-24T14:09:54;2.80;;;1.15;;
74459;SDS011;62902;48.854;9.292;2023-04-24T14:12:20;3.35;;;0.88;;
74459;SDS011;62902;48.854;9.292;2023-04-24T14:14:47;4.53;;;1.00;;
74459;SDS011;62902;48.854;9.292;2023-04-24T14:17:14;4.25;;;1.10;;
74459;SDS011;62902;48.854;9.292;2023-04-24T14:19:41;4.03;;;1.00;;
74459;SDS011;62902;48.854;9.292;2023-04-24T14:22:07;2.67;;;1.10;;
74459;SDS011;62902;48.854;9.292;2023-04-24T14:24:34;4.05;;;0.98;;
74459;SDS011;62902;48.854;9.292;2023-04-24T14:27:00;2.58;;;1.02;;
74459;SDS011;62902;48.854;9.292;2023-04-24T14:29:27;3.45;;;1.35;;
74459;SDS011;62902;48.854;9.292;2023-04-24T14:31:54;3.83;;;1.10;;
74459;SDS011;62902;48.854;9.292;2023-04-24T14:34:20;4.65;;;1.40;;
74459;SDS011;62902;48.854;9.292;2023-04-24T14:36:47;2.30;;;1.30;;
74459;SDS011;62902;48.854;9.292;2023-04-24T14:39:13;3.50;;;1.42;;
74459;SDS011;62902;48.854;9.292;2023-04-24T14:41:40;1.98;;;0.95;;
74459;SDS011;62902;48.854;9.292;2023-04-24T14:44:06;2.33;;;0.98;;
74459;SDS011;62902;48.854;9.292;2023-04-24T14:46:33;4.43;;;1.70;;